Terminal Aerodrome Forecast
Issued by NWS Northern Indiana

Home | Current Version | Previous Version | Graphics & Text | Print | Product List | Glossary On
Versions: 1 2 3 4 5 6 7 8 9 10 11 12 13 14 15
000
FTUS43 KIWX 180521
TAFFWA
TAF
KFWA 180521Z 1806/1906 07013KT P6SM SCT250
     FM181200 06015G22KT P6SM VCSH BKN100
     FM181600 08016G23KT 6SM -RA OVC025
     FM190000 07014G22KT P6SM -RA OVC015=

USA.gov is the U.S. government's official web portal to all federal, state and local government web resources and services.